sensor_id;sensor_type;location;lat;lon;timestamp;P1;durP1;ratioP1;P2;durP2;ratioP2
45382;SDS011;42455;51.660;5.824;2022-07-29T00:03:59;2.0;;;1.0;;
45382;SDS011;42455;51.660;5.824;2022-07-29T00:09:06;2.0;;;1.0;;
45382;SDS011;42455;51.660;5.824;2022-07-29T00:14:12;3.0;;;1.0;;
45382;SDS011;42455;51.660;5.824;2022-07-29T00:19:18;2.0;;;1.0;;
45382;SDS011;42455;51.660;5.824;2022-07-29T00:24:24;3.0;;;1.0;;
45382;SDS011;42455;51.660;5.824;2022-07-29T00:29:30;3.0;;;1.0;;
45382;SDS011;42455;51.660;5.824;2022-07-29T00:34:36;3.0;;;1.0;;
45382;SDS011;42455;51.660;5.824;2022-07-29T00:39:43;4.0;;;1.0;;
45382;SDS011;42455;51.660;5.824;2022-07-29T00:44:49;2.0;;;1.0;;
45382;SDS011;42455;51.660;5.824;2022-07-29T00:49:55;3.0;;;1.0;;
45382;SDS011;42455;51.660;5.824;2022-07-29T00:55:02;3.5;;;1.0;;
45382;SDS011;42455;51.660;5.824;2022-07-29T01:00:08;3.0;;;1.0;;
45382;SDS011;42455;51.660;5.824;2022-07-29T01:05:14;3.0;;;2.0;;
45382;SDS011;42455;51.660;5.824;2022-07-29T01:10:19;3.0;;;2.0;;
45382;SDS011;42455;51.660;5.824;2022-07-29T01:15:25;3.0;;;2.0;;
45382;SDS011;42455;51.660;5.824;2022-07-29T01:21:00;6.0;;;2.0;;
45382;SDS011;42455;51.660;5.824;2022-07-29T01:27:32;3.0;;;2.0;;
45382;SDS011;42455;51.660;5.824;2022-07-29T01:30:45;3.0;;;2.0;;
45382;SDS011;42455;51.660;5.824;2022-07-29T01:35:50;3.0;;;3.0;;
45382;SDS011;42455;51.660;5.824;2022-07-29T01:41:05;4.0;;;3.0;;
45382;SDS011;42455;51.660;5.824;2022-07-29T01:46:20;3.0;;;3.0;;
45382;SDS011;42455;51.660;5.824;2022-07-29T01:51:20;4.0;;;3.0;;
45382;SDS011;42455;51.660;5.824;2022-07-29T01:56:21;4.0;;;3.0;;
45382;SDS011;42455;51.660;5.824;2022-07-29T02:01:23;4.0;;;3.0;;
45382;SDS011;42455;51.660;5.824;2022-07-29T02:06:27;4.0;;;3.0;;
45382;SDS011;42455;51.660;5.824;2022-07-29T02:11:33;3.0;;;3.0;;
45382;SDS011;42455;51.660;5.824;2022-07-29T02:16:41;4.0;;;3.0;;
45382;SDS011;42455;51.660;5.824;2022-07-29T02:21:46;4.0;;;3.0;;
45382;SDS011;42455;51.660;5.824;2022-07-29T02:26:55;4.0;;;3.0;;
45382;SDS011;42455;51.660;5.824;2022-07-29T02:31:58;4.0;;;3.0;;
45382;SDS011;42455;51.660;5.824;2022-07-29T02:37:05;4.0;;;3.0;;
45382;SDS011;42455;51.660;5.824;2022-07-29T02:47:20;3.0;;;3.0;;
45382;SDS011;42455;51.660;5.824;2022-07-29T02:52:30;4.0;;;3.0;;
45382;SDS011;42455;51.660;5.824;2022-07-29T02:57:34;5.0;;;3.0;;
45382;SDS011;42455;51.660;5.824;2022-07-29T03:02:36;3.5;;;2.5;;
45382;SDS011;42455;51.660;5.824;2022-07-29T03:07:42;4.0;;;3.0;;
45382;SDS011;42455;51.660;5.824;2022-07-29T03:12:48;4.0;;;3.0;;
45382;SDS011;42455;51.660;5.824;2022-07-29T03:17:54;4.0;;;3.0;;
45382;SDS011;42455;51.660;5.824;2022-07-29T03:23:00;3.0;;;3.0;;
45382;SDS011;42455;51.660;5.824;2022-07-29T03:28:06;3.0;;;3.0;;
45382;SDS011;42455;51.660;5.824;2022-07-29T03:33:13;3.0;;;3.0;;
45382;SDS011;42455;51.660;5.824;2022-07-29T03:38:19;5.0;;;3.0;;
45382;SDS011;42455;51.660;5.824;2022-07-29T03:43:25;4.0;;;3.0;;
45382;SDS011;42455;51.660;5.824;2022-07-29T03:48:31;5.0;;;3.0;;
45382;SDS011;42455;51.660;5.824;2022-07-29T03:53:38;4.0;;;3.0;;
45382;SDS011;42455;51.660;5.824;2022-07-29T03:58:44;4.0;;;3.0;;
45382;SDS011;42455;51.660;5.824;2022-07-29T04:03:50;4.0;;;4.0;;
45382;SDS011;42455;51.660;5.824;2022-07-29T04:08:56;5.0;;;4.0;;
45382;SDS011;42455;51.660;5.824;2022-07-29T04:14:02;5.0;;;4.0;;
45382;SDS011;42455;51.660;5.824;2022-07-29T04:19:09;6.0;;;5.0;;
45382;SDS011;42455;51.660;5.824;2022-07-29T04:24:15;5.0;;;5.0;;
45382;SDS011;42455;51.660;5.824;2022-07-29T04:29:21;6.0;;;5.0;;
45382;SDS011;42455;51.660;5.824;2022-07-29T04:34:27;5.0;;;5.0;;
45382;SDS011;42455;51.660;5.824;2022-07-29T04:39:33;5.0;;;5.0;;
45382;SDS011;42455;51.660;5.824;2022-07-29T04:44:40;6.0;;;5.0;;
45382;SDS011;42455;51.660;5.824;2022-07-29T04:49:46;6.0;;;5.0;;
45382;SDS011;42455;51.660;5.824;2022-07-29T04:54:52;6.0;;;5.0;;
45382;SDS011;42455;51.660;5.824;2022-07-29T04:59:58;6.0;;;5.0;;
45382;SDS011;42455;51.660;5.824;2022-07-29T05:05:05;6.0;;;5.0;;
45382;SDS011;42455;51.660;5.824;2022-07-29T05:10:11;7.0;;;6.0;;
45382;SDS011;42455;51.660;5.824;2022-07-29T05:15:17;7.0;;;6.0;;
45382;SDS011;42455;51.660;5.824;2022-07-29T05:20:23;6.5;;;6.0;;
45382;SDS011;42455;51.660;5.824;2022-07-29T05:25:29;6.0;;;6.0;;
45382;SDS011;42455;51.660;5.824;2022-07-29T05:30:36;6.5;;;6.0;;
45382;SDS011;42455;51.660;5.824;2022-07-29T05:35:42;6.0;;;5.0;;
45382;SDS011;42455;51.660;5.824;2022-07-29T05:40:48;6.0;;;5.0;;
45382;SDS011;42455;51.660;5.824;2022-07-29T05:45:54;6.0;;;6.0;;
45382;SDS011;42455;51.660;5.824;2022-07-29T05:51:00;6.0;;;5.0;;
45382;SDS011;42455;51.660;5.824;2022-07-29T05:56:07;6.0;;;5.5;;
45382;SDS011;42455;51.660;5.824;2022-07-29T06:01:13;6.0;;;6.0;;
45382;SDS011;42455;51.660;5.824;2022-07-29T06:06:19;7.0;;;6.0;;
45382;SDS011;42455;51.660;5.824;2022-07-29T06:11:25;6.0;;;5.0;;
45382;SDS011;42455;51.660;5.824;2022-07-29T06:16:31;6.0;;;6.0;;
45382;SDS011;42455;51.660;5.824;2022-07-29T06:21:40;6.5;;;6.0;;
45382;SDS011;42455;51.660;5.824;2022-07-29T06:26:44;6.0;;;6.0;;
45382;SDS011;42455;51.660;5.824;2022-07-29T06:31:50;6.0;;;6.0;;
45382;SDS011;42455;51.660;5.824;2022-07-29T06:36:56;6.0;;;6.0;;
45382;SDS011;42455;51.660;5.824;2022-07-29T06:42:01;7.0;;;6.0;;
45382;SDS011;42455;51.660;5.824;2022-07-29T06:47:08;6.0;;;5.0;;
45382;SDS011;42455;51.660;5.824;2022-07-29T06:52:14;6.0;;;6.0;;
45382;SDS011;42455;51.660;5.824;2022-07-29T06:57:20;6.0;;;5.0;;
45382;SDS011;42455;51.660;5.824;2022-07-29T07:02:26;6.0;;;5.0;;
45382;SDS011;42455;51.660;5.824;2022-07-29T07:07:32;6.0;;;5.0;;
45382;SDS011;42455;51.660;5.824;2022-07-29T07:12:38;6.0;;;6.0;;
45382;SDS011;42455;51.660;5.824;2022-07-29T07:17:44;7.0;;;6.0;;
45382;SDS011;42455;51.660;5.824;2022-07-29T07:22:50;6.0;;;6.0;;
45382;SDS011;42455;51.660;5.824;2022-07-29T07:27:57;7.0;;;6.0;;
45382;SDS011;42455;51.660;5.824;2022-07-29T07:33:03;6.0;;;6.0;;
45382;SDS011;42455;51.660;5.824;2022-07-29T07:38:09;6.0;;;6.0;;
45382;SDS011;42455;51.660;5.824;2022-07-29T07:43:15;6.0;;;5.0;;
45382;SDS011;42455;51.660;5.824;2022-07-29T07:48:21;6.0;;;5.0;;
45382;SDS011;42455;51.660;5.824;2022-07-29T07:53:27;6.5;;;6.0;;
45382;SDS011;42455;51.660;5.824;2022-07-29T07:58:34;6.0;;;5.0;;
45382;SDS011;42455;51.660;5.824;2022-07-29T08:03:40;6.0;;;5.0;;
45382;SDS011;42455;51.660;5.824;2022-07-29T08:08:46;5.0;;;5.0;;
45382;SDS011;42455;51.660;5.824;2022-07-29T08:13:52;5.0;;;4.0;;
45382;SDS011;42455;51.660;5.824;2022-07-29T08:18:58;6.0;;;5.0;;
45382;SDS011;42455;51.660;5.824;2022-07-29T08:24:05;5.0;;;5.0;;
45382;SDS011;42455;51.660;5.824;2022-07-29T08:29:11;5.0;;;5.0;;
45382;SDS011;42455;51.660;5.824;2022-07-29T08:34:17;6.0;;;5.0;;
45382;SDS011;42455;51.660;5.824;2022-07-29T08:39:24;6.0;;;5.0;;
45382;SDS011;42455;51.660;5.824;2022-07-29T08:49:36;5.0;;;4.0;;
45382;SDS011;42455;51.660;5.824;2022-07-29T08:54:43;5.0;;;5.0;;
45382;SDS011;42455;51.660;5.824;2022-07-29T08:59:48;5.0;;;5.0;;
45382;SDS011;42455;51.660;5.824;2022-07-29T09:04:54;6.0;;;4.0;;
45382;SDS011;42455;51.660;5.824;2022-07-29T09:10:01;5.0;;;4.0;;
45382;SDS011;42455;51.660;5.824;2022-07-29T09:15:07;5.0;;;4.0;;
45382;SDS011;42455;51.660;5.824;2022-07-29T09:20:15;6.0;;;5.0;;
45382;SDS011;42455;51.660;5.824;2022-07-29T09:25:32;5.0;;;4.0;;
45382;SDS011;42455;51.660;5.824;2022-07-29T09:30:25;5.0;;;5.0;;
45382;SDS011;42455;51.660;5.824;2022-07-29T09:35:31;5.0;;;5.0;;
45382;SDS011;42455;51.660;5.824;2022-07-29T09:40:38;5.0;;;5.0;;
45382;SDS011;42455;51.660;5.824;2022-07-29T09:45:44;5.0;;;4.0;;
45382;SDS011;42455;51.660;5.824;2022-07-29T09:50:50;5.0;;;4.0;;
45382;SDS011;42455;51.660;5.824;2022-07-29T10:06:11;4.0;;;4.0;;
45382;SDS011;42455;51.660;5.824;2022-07-29T10:11:16;5.0;;;4.0;;
45382;SDS011;42455;51.660;5.824;2022-07-29T10:16:26;5.0;;;4.0;;
45382;SDS011;42455;51.660;5.824;2022-07-29T10:21:32;4.0;;;4.0;;
45382;SDS011;42455;51.660;5.824;2022-07-29T10:26:44;5.0;;;4.0;;
45382;SDS011;42455;51.660;5.824;2022-07-29T10:32:02;4.0;;;4.0;;
45382;SDS011;42455;51.660;5.824;2022-07-29T10:38:34;4.0;;;4.0;;
45382;SDS011;42455;51.660;5.824;2022-07-29T10:42:39;4.0;;;4.0;;
45382;SDS011;42455;51.660;5.824;2022-07-29T10:47:26;4.0;;;3.0;;
45382;SDS011;42455;51.660;5.824;2022-07-29T10:52:51;4.0;;;3.0;;
45382;SDS011;42455;51.660;5.824;2022-07-29T10:58:13;7.0;;;3.0;;
45382;SDS011;42455;51.660;5.824;2022-07-29T11:03:02;5.0;;;3.0;;
45382;SDS011;42455;51.660;5.824;2022-07-29T11:08:26;5.0;;;3.0;;
45382;SDS011;42455;51.660;5.824;2022-07-29T11:13:15;4.0;;;3.0;;
45382;SDS011;42455;51.660;5.824;2022-07-29T11:18:21;4.0;;;3.5;;
45382;SDS011;42455;51.660;5.824;2022-07-29T11:23:29;4.0;;;3.0;;
45382;SDS011;42455;51.660;5.824;2022-07-29T11:28:33;4.0;;;3.0;;
45382;SDS011;42455;51.660;5.824;2022-07-29T11:33:39;4.0;;;3.0;;
45382;SDS011;42455;51.660;5.824;2022-07-29T11:38:46;4.0;;;3.0;;
45382;SDS011;42455;51.660;5.824;2022-07-29T11:43:52;4.0;;;3.0;;
45382;SDS011;42455;51.660;5.824;2022-07-29T11:48:58;4.0;;;3.0;;
45382;SDS011;42455;51.660;5.824;2022-07-29T11:54:04;4.0;;;3.0;;
45382;SDS011;42455;51.660;5.824;2022-07-29T11:59:10;4.0;;;3.0;;
45382;SDS011;42455;51.660;5.824;2022-07-29T12:04:17;3.0;;;2.0;;
45382;SDS011;42455;51.660;5.824;2022-07-29T12:09:23;3.0;;;2.0;;
45382;SDS011;42455;51.660;5.824;2022-07-29T12:14:30;3.0;;;3.0;;
45382;SDS011;42455;51.660;5.824;2022-07-29T12:19:41;4.0;;;3.0;;
45382;SDS011;42455;51.660;5.824;2022-07-29T12:24:44;4.0;;;3.0;;
45382;SDS011;42455;51.660;5.824;2022-07-29T12:29:54;3.0;;;3.0;;
45382;SDS011;42455;51.660;5.824;2022-07-29T12:34:54;3.0;;;3.0;;
45382;SDS011;42455;51.660;5.824;2022-07-29T12:40:00;4.0;;;3.0;;
45382;SDS011;42455;51.660;5.824;2022-07-29T12:45:07;5.0;;;3.0;;
45382;SDS011;42455;51.660;5.824;2022-07-29T12:50:14;3.5;;;3.0;;
45382;SDS011;42455;51.660;5.824;2022-07-29T13:00:23;4.0;;;3.0;;
45382;SDS011;42455;51.660;5.824;2022-07-29T13:05:39;4.0;;;3.0;;
45382;SDS011;42455;51.660;5.824;2022-07-29T13:10:36;3.0;;;2.0;;
45382;SDS011;42455;51.660;5.824;2022-07-29T13:15:43;3.0;;;2.0;;
45382;SDS011;42455;51.660;5.824;2022-07-29T13:20:48;5.0;;;2.0;;
45382;SDS011;42455;51.660;5.824;2022-07-29T13:25:54;3.0;;;2.0;;
45382;SDS011;42455;51.660;5.824;2022-07-29T13:31:01;4.0;;;2.0;;
45382;SDS011;42455;51.660;5.824;2022-07-29T13:36:07;3.0;;;2.0;;
45382;SDS011;42455;51.660;5.824;2022-07-29T13:41:13;3.0;;;2.0;;
45382;SDS011;42455;51.660;5.824;2022-07-29T13:46:20;3.5;;;2.0;;
45382;SDS011;42455;51.660;5.824;2022-07-29T13:51:26;2.0;;;2.0;;
45382;SDS011;42455;51.660;5.824;2022-07-29T13:56:32;2.0;;;2.0;;
45382;SDS011;42455;51.660;5.824;2022-07-29T14:01:38;2.0;;;2.0;;
45382;SDS011;42455;51.660;5.824;2022-07-29T14:06:44;2.0;;;2.0;;
45382;SDS011;42455;51.660;5.824;2022-07-29T14:11:50;3.0;;;2.0;;
45382;SDS011;42455;51.660;5.824;2022-07-29T14:16:57;2.0;;;2.0;;
45382;SDS011;42455;51.660;5.824;2022-07-29T14:22:03;2.0;;;2.0;;
45382;SDS011;42455;51.660;5.824;2022-07-29T14:27:09;4.0;;;2.0;;
45382;SDS011;42455;51.660;5.824;2022-07-29T14:32:15;3.0;;;2.0;;
45382;SDS011;42455;51.660;5.824;2022-07-29T14:37:21;3.0;;;2.0;;
45382;SDS011;42455;51.660;5.824;2022-07-29T14:42:28;3.0;;;2.0;;
45382;SDS011;42455;51.660;5.824;2022-07-29T14:47:33;2.0;;;2.0;;
45382;SDS011;42455;51.660;5.824;2022-07-29T14:52:39;3.0;;;2.0;;
45382;SDS011;42455;51.660;5.824;2022-07-29T14:57:44;3.0;;;2.0;;
45382;SDS011;42455;51.660;5.824;2022-07-29T15:02:51;4.0;;;2.0;;
45382;SDS011;42455;51.660;5.824;2022-07-29T15:07:57;2.0;;;1.0;;
45382;SDS011;42455;51.660;5.824;2022-07-29T15:13:03;2.0;;;2.0;;
45382;SDS011;42455;51.660;5.824;2022-07-29T15:18:09;3.0;;;2.0;;
45382;SDS011;42455;51.660;5.824;2022-07-29T15:23:16;2.0;;;2.0;;
45382;SDS011;42455;51.660;5.824;2022-07-29T15:28:22;5.0;;;2.0;;
45382;SDS011;42455;51.660;5.824;2022-07-29T15:33:28;2.0;;;1.0;;
45382;SDS011;42455;51.660;5.824;2022-07-29T15:38:34;2.0;;;2.0;;
45382;SDS011;42455;51.660;5.824;2022-07-29T15:43:41;3.0;;;2.0;;
45382;SDS011;42455;51.660;5.824;2022-07-29T15:48:47;3.0;;;2.0;;
45382;SDS011;42455;51.660;5.824;2022-07-29T15:53:53;3.0;;;2.0;;
45382;SDS011;42455;51.660;5.824;2022-07-29T15:58:59;3.0;;;2.0;;
45382;SDS011;42455;51.660;5.824;2022-07-29T16:04:05;4.0;;;2.0;;
45382;SDS011;42455;51.660;5.824;2022-07-29T16:09:11;3.0;;;2.0;;
45382;SDS011;42455;51.660;5.824;2022-07-29T16:14:18;4.0;;;3.0;;
45382;SDS011;42455;51.660;5.824;2022-07-29T16:19:24;4.0;;;2.0;;
45382;SDS011;42455;51.660;5.824;2022-07-29T16:24:30;4.0;;;2.0;;
45382;SDS011;42455;51.660;5.824;2022-07-29T16:29:36;3.0;;;2.0;;
45382;SDS011;42455;51.660;5.824;2022-07-29T16:34:43;3.0;;;2.0;;
45382;SDS011;42455;51.660;5.824;2022-07-29T16:39:49;3.0;;;2.0;;
45382;SDS011;42455;51.660;5.824;2022-07-29T16:44:54;4.0;;;2.0;;
45382;SDS011;42455;51.660;5.824;2022-07-29T16:50:00;3.0;;;2.0;;
45382;SDS011;42455;51.660;5.824;2022-07-29T16:55:06;3.0;;;2.0;;
45382;SDS011;42455;51.660;5.824;2022-07-29T17:00:13;2.0;;;2.0;;
45382;SDS011;42455;51.660;5.824;2022-07-29T17:05:19;3.0;;;2.0;;
45382;SDS011;42455;51.660;5.824;2022-07-29T17:10:25;3.0;;;2.0;;
45382;SDS011;42455;51.660;5.824;2022-07-29T17:15:31;3.0;;;2.0;;
45382;SDS011;42455;51.660;5.824;2022-07-29T17:20:38;4.0;;;2.0;;
45382;SDS011;42455;51.660;5.824;2022-07-29T17:25:44;4.0;;;2.0;;
45382;SDS011;42455;51.660;5.824;2022-07-29T17:30:50;3.0;;;2.0;;
45382;SDS011;42455;51.660;5.824;2022-07-29T17:35:56;3.0;;;2.0;;
45382;SDS011;42455;51.660;5.824;2022-07-29T17:41:02;3.0;;;2.0;;
45382;SDS011;42455;51.660;5.824;2022-07-29T17:46:09;5.0;;;2.0;;
45382;SDS011;42455;51.660;5.824;2022-07-29T17:51:15;5.0;;;2.0;;
45382;SDS011;42455;51.660;5.824;2022-07-29T17:56:21;3.0;;;2.0;;
45382;SDS011;42455;51.660;5.824;2022-07-29T18:01:27;3.0;;;2.0;;
45382;SDS011;42455;51.660;5.824;2022-07-29T18:06:34;4.0;;;3.0;;
45382;SDS011;42455;51.660;5.824;2022-07-29T18:11:40;3.0;;;2.0;;
45382;SDS011;42455;51.660;5.824;2022-07-29T18:16:46;3.0;;;2.0;;
45382;SDS011;42455;51.660;5.824;2022-07-29T18:21:52;5.0;;;3.0;;
45382;SDS011;42455;51.660;5.824;2022-07-29T18:26:58;3.0;;;2.0;;
45382;SDS011;42455;51.660;5.824;2022-07-29T18:32:04;3.0;;;2.0;;
45382;SDS011;42455;51.660;5.824;2022-07-29T18:37:10;4.0;;;3.0;;
45382;SDS011;42455;51.660;5.824;2022-07-29T18:42:15;4.0;;;3.0;;
45382;SDS011;42455;51.660;5.824;2022-07-29T18:47:21;4.5;;;3.0;;
45382;SDS011;42455;51.660;5.824;2022-07-29T18:52:26;3.0;;;3.0;;
45382;SDS011;42455;51.660;5.824;2022-07-29T18:57:33;4.5;;;3.0;;
45382;SDS011;42455;51.660;5.824;2022-07-29T19:02:39;5.0;;;3.0;;
45382;SDS011;42455;51.660;5.824;2022-07-29T19:12:51;5.0;;;4.0;;
45382;SDS011;42455;51.660;5.824;2022-07-29T19:17:58;6.0;;;4.0;;
45382;SDS011;42455;51.660;5.824;2022-07-29T19:23:04;5.5;;;3.0;;
45382;SDS011;42455;51.660;5.824;2022-07-29T19:28:10;4.0;;;3.0;;
45382;SDS011;42455;51.660;5.824;2022-07-29T19:33:16;5.0;;;2.0;;
45382;SDS011;42455;51.660;5.824;2022-07-29T19:38:22;3.0;;;2.0;;
45382;SDS011;42455;51.660;5.824;2022-07-29T19:43:29;3.0;;;3.0;;
45382;SDS011;42455;51.660;5.824;2022-07-29T19:48:35;4.0;;;3.0;;
45382;SDS011;42455;51.660;5.824;2022-07-29T19:53:41;5.0;;;2.0;;
45382;SDS011;42455;51.660;5.824;2022-07-29T19:58:47;5.0;;;3.0;;
45382;SDS011;42455;51.660;5.824;2022-07-29T20:03:53;4.0;;;2.0;;
45382;SDS011;42455;51.660;5.824;2022-07-29T20:09:00;4.0;;;2.0;;
45382;SDS011;42455;51.660;5.824;2022-07-29T20:14:06;4.0;;;2.5;;
45382;SDS011;42455;51.660;5.824;2022-07-29T20:19:12;4.0;;;2.0;;
45382;SDS011;42455;51.660;5.824;2022-07-29T20:24:18;4.0;;;3.0;;
45382;SDS011;42455;51.660;5.824;2022-07-29T20:29:25;4.0;;;3.0;;
45382;SDS011;42455;51.660;5.824;2022-07-29T20:34:31;3.0;;;3.0;;
45382;SDS011;42455;51.660;5.824;2022-07-29T20:39:37;3.0;;;3.0;;
45382;SDS011;42455;51.660;5.824;2022-07-29T20:44:42;4.0;;;3.0;;
45382;SDS011;42455;51.660;5.824;2022-07-29T20:49:48;5.0;;;3.0;;
45382;SDS011;42455;51.660;5.824;2022-07-29T20:54:55;3.0;;;3.0;;
45382;SDS011;42455;51.660;5.824;2022-07-29T21:00:01;4.0;;;3.0;;
45382;SDS011;42455;51.660;5.824;2022-07-29T21:05:07;4.0;;;3.0;;
45382;SDS011;42455;51.660;5.824;2022-07-29T21:10:13;4.0;;;3.0;;
45382;SDS011;42455;51.660;5.824;2022-07-29T21:15:20;4.0;;;3.0;;
45382;SDS011;42455;51.660;5.824;2022-07-29T21:20:26;5.0;;;3.0;;
45382;SDS011;42455;51.660;5.824;2022-07-29T21:25:32;4.0;;;3.0;;
45382;SDS011;42455;51.660;5.824;2022-07-29T21:30:38;5.5;;;3.0;;
45382;SDS011;42455;51.660;5.824;2022-07-29T21:35:44;5.0;;;3.0;;
45382;SDS011;42455;51.660;5.824;2022-07-29T21:40:51;4.0;;;3.0;;
45382;SDS011;42455;51.660;5.824;2022-07-29T21:45:57;5.0;;;3.0;;
45382;SDS011;42455;51.660;5.824;2022-07-29T21:56:09;5.0;;;3.0;;
45382;SDS011;42455;51.660;5.824;2022-07-29T22:01:15;6.0;;;4.0;;
45382;SDS011;42455;51.660;5.824;2022-07-29T22:06:21;5.5;;;5.0;;
45382;SDS011;42455;51.660;5.824;2022-07-29T22:11:28;6.0;;;5.0;;
45382;SDS011;42455;51.660;5.824;2022-07-29T22:16:34;5.0;;;4.0;;
45382;SDS011;42455;51.660;5.824;2022-07-29T22:21:40;6.0;;;5.0;;
45382;SDS011;42455;51.660;5.824;2022-07-29T22:26:46;6.0;;;4.0;;
45382;SDS011;42455;51.660;5.824;2022-07-29T22:31:53;5.0;;;4.0;;
45382;SDS011;42455;51.660;5.824;2022-07-29T22:36:58;5.0;;;5.0;;
45382;SDS011;42455;51.660;5.824;2022-07-29T22:42:04;5.0;;;5.0;;
45382;SDS011;42455;51.660;5.824;2022-07-29T22:47:09;6.0;;;5.0;;
45382;SDS011;42455;51.660;5.824;2022-07-29T22:52:15;6.0;;;5.0;;
45382;SDS011;42455;51.660;5.824;2022-07-29T22:57:22;6.0;;;5.0;;
45382;SDS011;42455;51.660;5.824;2022-07-29T23:02:28;7.0;;;5.0;;
45382;SDS011;42455;51.660;5.824;2022-07-29T23:07:35;7.0;;;6.0;;
45382;SDS011;42455;51.660;5.824;2022-07-29T23:12:40;7.0;;;6.0;;
45382;SDS011;42455;51.660;5.824;2022-07-29T23:17:46;8.0;;;6.0;;
45382;SDS011;42455;51.660;5.824;2022-07-29T23:22:53;7.5;;;6.0;;
45382;SDS011;42455;51.660;5.824;2022-07-29T23:27:59;8.0;;;6.0;;
45382;SDS011;42455;51.660;5.824;2022-07-29T23:33:05;7.0;;;6.0;;
45382;SDS011;42455;51.660;5.824;2022-07-29T23:38:11;7.0;;;7.0;;
45382;SDS011;42455;51.660;5.824;2022-07-29T23:43:17;8.0;;;7.0;;
45382;SDS011;42455;51.660;5.824;2022-07-29T23:48:24;9.0;;;7.0;;
45382;SDS011;42455;51.660;5.824;2022-07-29T23:53:30;8.5;;;7.0;;
45382;SDS011;42455;51.660;5.824;2022-07-29T23:58:36;9.0;;;8.0;;
